Weather observations for the past three days for
Michigan City Municipal Airport
Metric (Imperial)
Date Time (cdt) Wind (kph) Vis. (km) Weather Sky Cond. Temperature (ºC) Relative Humidity Wind Chill (°C) Heat Index (°C) Pressure Precipitation (cm)
Air Dwpt 6 hour altimeter (cm) sea level (mb) 1 hr 3 hr 6 hr
Max. Min.
21 11:35 W 6 16.09 Fair CLR 28 21 66% 30 76.78 0.0
21 11:15 W 6 16.09 Fair CLR 27 21 70% 29 76.78 0.0
21 10:55 Calm 16.09 Fair CLR 27 21 70% 29 76.78 0.0
21 10:35 Calm 16.09 Fair CLR 26 21 74% 27 76.78 0.0
21 10:15 W 9 16.09 Fair CLR 27 21 70% 29 76.81 0.0
21 09:55 SW 7 16.09 Fair CLR 26 21 74% 27 76.81 0.0
21 09:35 Calm 16.09 Fair CLR 25 21 79% 26 76.81 0.0
21 09:15 Calm 16.09 Fair CLR 25 20 74% 26 76.81 0.0
21 08:55 Calm 16.09 Fair CLR 23 20 83% 76.84 0.0
21 08:35 Calm 16.09 Fair CLR 23 20 83% 76.84 0.0
21 08:15 Calm 16.09 Partly Cloudy SCT003 22 20 88% 76.86 0.0
21 07:55 Calm 8.05 Fog/Mist OVC003 21 19 88% 76.86 0.0
21 07:35 N 7 8.05 Fog/Mist OVC003 20 19 94% 76.86 0.0
21 07:15 Calm 8.05 Fog/Mist OVC003 20 19 94% 76.84 0.0
21 06:55 Calm 4.02 Fog/Mist OVC003 20 19 94% 76.81 0.0
21 06:35 Calm 4.83 Fog/Mist OVC003 19 19 100% 76.81 0.0
21 06:15 Calm 2.41 Fog/Mist OVC003 19 18 94% 76.81 0.0
21 05:55 Calm 6.44 Fog/Mist OVC003 19 18 94% 76.81 0.0
21 05:35 Calm 4.83 Fog/Mist OVC003 19 18 94% 76.81 0.0
21 05:15 NW 6 1.21 Fog/Mist OVC003 18 18 100% 76.81 0.0
21 04:55 Calm 0.80 Fog OVC003 19 18 94% 76.81 0.0
21 04:35 Calm 1.61 Fog/Mist OVC003 19 18 94% 76.78 0.0
21 04:15 Calm 1.21 Fog/Mist OVC003 19 18 94% 76.78 0.0
21 03:55 Calm 2.01 Fog/Mist OVC003 19 18 94% 76.78 0.0
21 03:35 Calm 2.41 Fog/Mist OVC003 19 18 94% 76.78 0.0
21 03:15 Calm 3.22 Fog/Mist OVC003 19 18 94% 76.78 0.0
21 02:55 Calm 6.44 Fog/Mist OVC003 19 18 94% 76.81 0.0
21 02:35 Calm 6.44 Fog/Mist OVC003 19 18 94% 76.81 0.0
21 02:15 Calm 8.05 Fog/Mist OVC003 19 18 94% 76.81 0.0
21 01:55 Calm 11.27 Overcast OVC003 19 18 94% 76.81 0.0
21 01:35 Calm 11.27 Overcast OVC003 19 18 94% 76.84 0.0
21 01:15 N 7 11.27 Overcast OVC003 19 18 94% 76.84 0.0
21 00:55 NW 6 11.27 Overcast OVC003 20 19 94% 76.86 0.0
21 00:35 NW 6 6.44 Fog/Mist OVC003 20 19 94% 76.86 0.0
21 00:15 Calm 8.05 Fog/Mist OVC003 20 19 94% 76.84 0.0
20 23:55 Calm 8.05 Fog/Mist OVC003 20 19 94% 76.86 0.0
20 23:35 Calm 8.05 Fog/Mist OVC003 19 18 94% 76.89 0.0
20 23:15 Calm 4.02 Fog/Mist OVC003 19 18 94% 76.89 0.0
20 22:55 Calm 2.41 Fog/Mist OVC003 19 18 94% 76.86 0.0
20 22:35 Calm 2.82 Fog/Mist OVC003 19 18 94% 76.89 0.0
20 22:15 N 6 2.41 Fog/Mist OVC003 19 18 94% 76.89 0.0
20 21:55 N 7 2.82 Fog/Mist OVC003 19 18 94% 76.89 0.0
20 21:35 N 6 1.61 Fog/Mist OVC003 19 18 94% 76.89 0.0
20 21:15 N 7 4.83 Fog/Mist OVC003 19 18 94% 76.89 0.0
20 20:55 NW 7 6.44 Fog/Mist OVC003 19 18 94% 76.89 0.0
20 20:35 N 11 8.05 Fog/Mist OVC003 20 18 88% 76.86 0.0
20 20:15 NW 6 11.27 Overcast OVC003 20 19 94% 76.84 0.0
20 19:55 NW 9 11.27 Overcast BKN005 OVC080 20 19 94% 76.84 0.0
20 19:35 N 11 16.09 Mostly Cloudy BKN080 21 19 88% 76.84 0.0
20 19:15 N 9 16.09 Mostly Cloudy SCT070 BKN080 22 20 88% 76.81 0.0
20 18:55 N 6 16.09 Mostly Cloudy SCT070 BKN080 22 20 88% 76.81 0.0
20 18:35 N 7 16.09 Partly Cloudy SCT080 SCT100 23 20 83% 76.84 0.0
20 18:15 N 7 16.09 Mostly Cloudy BKN110 23 20 83% 76.84 0.0
20 17:55 N 13 16.09 Mostly Cloudy BKN100 23 20 83% 76.84 0.0
20 17:35 N 13 16.09 Overcast OVC100 25 20 74% 26 76.84 0.0
20 17:15 N 6 16.09 Mostly Cloudy BKN100 25 20 74% 26 76.84 0.0
20 16:55 N 9 16.09 Mostly Cloudy BKN110 25 20 74% 26 76.84 0.0
20 16:35 N 9 16.09 Mostly Cloudy BKN100 24 20 78% 24 76.84 0.0
20 16:15 N 9 16.09 Partly Cloudy SCT100 24 20 78% 24 76.84 0.0
20 15:55 N 9 16.09 Fair CLR 25 20 74% 26 76.86 0.0
20 15:35 NW 11 16.09 Fair CLR 25 20 74% 26 76.86 0.0
20 15:15 N 9 16.09 Fair CLR 25 20 74% 26 76.86 0.0
20 14:55 NW 7 16.09 Fair CLR 26 21 74% 27 76.89 0.0
20 14:35 N 9 16.09 Fair CLR 26 21 74% 27 76.89 0.0
20 14:15 NW 11 16.09 Fair CLR 27 21 70% 29 76.91 0.0
20 13:55 NW 6 16.09 Partly Cloudy SCT095 27 20 66% 29 76.91 0.0
20 13:35 NW 7 16.09 Mostly Cloudy BKN095 27 21 70% 29 76.91 0.0
20 13:15 N 6 16.09 Partly Cloudy SCT095 27 21 70% 29 76.94 0.0
20 12:55 W 6 16.09 Fair CLR 26 20 70% 27 76.94 0.0
20 12:35 W 9 16.09 Fair CLR 25 20 74% 26 76.96 0.0
20 12:15 NW 9 16.09 Fair CLR 25 21 79% 26 76.96 0.0
20 11:55 NW 13 16.09 Fair CLR 26 21 74% 27 76.99 0.0
20 11:35 NW 9 16.09 Fair CLR 27 21 70% 29 76.96 0.0
20 11:15 NW 11 16.09 Fair CLR 28 21 66% 30 76.96 0.0
20 10:55 NW 9 16.09 Fair CLR 28 21 66% 30 76.96 0.0
20 10:35 W 7 16.09 Fair CLR 28 22 70% 31 76.96 0.0
20 10:15 NW 6 16.09 Fair CLR 28 21 66% 30 76.96 0.0
20 09:55 Calm 16.09 Fair CLR 28 21 66% 30 76.96 0.0
20 09:35 N 7 16.09 Fair CLR 27 21 70% 29 76.96 0.0
20 09:15 NW 6 16.09 Partly Cloudy SCT090 27 21 70% 29 76.94 0.0
20 08:55 S 6 16.09 Partly Cloudy SCT090 27 21 70% 29 76.96 0.0
20 08:35 SW 7 16.09 Fair CLR 26 21 74% 27 76.96 0.0
20 08:15 W 7 16.09 Fair CLR 26 21 74% 27 76.96 0.0
20 07:55 SW 6 16.09 Partly Cloudy SCT075 SCT085 25 21 79% 26 76.94 0.0
20 07:35 Calm 16.09 Partly Cloudy SCT080 24 21 83% 24 76.94 0.0
20 07:15 Calm 16.09 Overcast OVC080 23 21 89% 76.91 0.0
20 06:55 Calm 16.09 Mostly Cloudy BKN080 22 20 88% 76.91 0.0
20 06:35 Calm 16.09 Fair CLR 21 20 94% 76.89 0.0
20 06:15 Calm 16.09 Partly Cloudy SCT080 21 19 88% 76.89 0.0
20 05:55 Calm 16.09 Fair CLR 20 19 94% 76.89 0.0
20 05:35 Calm 16.09 Fair CLR 20 19 94% 76.86 0.0
20 05:15 Calm 16.09 Fair CLR 20 19 94% 76.86 0.0
20 04:55 Calm 16.09 Fair CLR 20 19 94% 76.86 0.0
20 04:35 Calm 16.09 Fair CLR 21 18 83% 76.84 0.0
20 04:15 Calm 16.09 Fair CLR 20 18 88% 76.84 0.0
20 03:55 Calm 16.09 Fair CLR 22 19 83% 76.84 0.0
20 03:35 Calm 16.09 Fair CLR 21 19 88% 76.81 0.0
20 03:15 Calm 16.09 Fair CLR 21 19 88% 76.81 0.0
20 02:55 Calm 16.09 Fair CLR 21 19 88% 76.81 0.0
20 02:35 Calm 16.09 Fair CLR 22 19 83% 76.81 0.0
20 02:15 Calm 16.09 Fair CLR 22 20 88% 76.81 0.0
20 01:55 Calm 16.09 Fair CLR 21 19 88% 76.81 0.0
20 01:35 Calm 16.09 Fair CLR 22 19 83% 76.81 0.0
20 01:15 Calm 16.09 Partly Cloudy SCT065 23 19 78% 76.81 0.0
20 00:55 Calm 16.09 Overcast BKN065 OVC095 23 19 78% 76.81 0.0
20 00:35 SE 6 16.09 Overcast BKN065 OVC090 23 19 78% 76.84 0.0
20 00:15 Calm 16.09 Mostly Cloudy BKN065 BKN100 23 19 78% 76.84 0.0
19 23:55 SE 6 16.09 Partly Cloudy SCT100 23 19 78% 76.84 0.0
19 23:35 Calm 16.09 Partly Cloudy SCT090 24 19 74% 25 76.84 0.0
19 23:15 Calm 16.09 Mostly Cloudy BKN090 25 18 65% 26 76.86 0.0
19 22:55 Calm 16.09 Overcast OVC100 24 19 74% 25 76.84 0.0
19 22:35 Calm 16.09 Mostly Cloudy BKN100 25 18 65% 26 76.84 0.0
19 22:15 Calm 16.09 Mostly Cloudy BKN090 26 18 61% 27 76.84 0.0
19 21:55 NW 6 16.09 Partly Cloudy SCT100 26 19 65% 27 76.84 0.0
19 21:35 W 9 16.09 Partly Cloudy SCT100 26 19 65% 27 76.84 0.0
19 21:15 W 15 16.09 Partly Cloudy SCT100 26 21 74% 27 76.81 0.0
19 20:55 Calm 16.09 Fair CLR 27 21 70% 29 76.78 0.0
19 20:35 Calm 16.09 Fair CLR 26 22 79% 28 76.76 0.0
19 20:15 Calm 16.09 Fair CLR 26 22 79% 28 76.73 0.0
19 19:55 Calm 16.09 Fair CLR 27 22 74% 29 76.73 0.0
19 19:35 Calm 16.09 Fair CLR 28 21 66% 30 76.73 0.0
19 19:15 Calm 16.09 Fair CLR 30 21 59% 33 76.71 0.0
19 18:55 S 6 16.09 Fair CLR 31 21 55% 34 76.71 0.0
19 18:35 S 6 16.09 Fair CLR 31 20 52% 33 76.71 0.0
19 18:15 SW 9 16.09 Fair CLR 30 20 55% 32 76.71 0.0
19 17:55 SW 11 16.09 Fair CLR 31 19 49% 32 76.71 0.0
19 17:35 S 11 16.09 Fair CLR 31 20 52% 33 76.71 0.0
19 17:15 SW 13 16.09 Fair CLR 32 18 43% 33 76.71 0.0
19 16:55 SW 13 16.09 Fair CLR 32 20 49% 34 76.71 0.0
19 16:35 S 9 16.09 Fair CLR 32 19 46% 33 76.71 0.0
19 16:15 S 9 16.09 Fair CLR 32 20 49% 34 76.71 0.0
19 15:55 S 7 16.09 Fair CLR 31 20 52% 33 76.73 0.0
19 15:35 S 11 16.09 Partly Cloudy SCT060 SCT090 32 20 49% 34 76.76 0.0
19 15:15 S 11 16.09 Partly Cloudy SCT070 SCT090 31 20 52% 33 76.76 0.0
19 14:55 S 13 16.09 Fair CLR 32 20 49% 34 76.76 0.0
19 14:35 S 13 16.09 Fair CLR 31 20 52% 33 76.76 0.0
19 14:15 S 15 16.09 Partly Cloudy SCT055 32 19 46% 33 76.76 0.0
19 13:55 S 13 16.09 Partly Cloudy SCT090 32 20 49% 34 76.76 0.0
19 13:35 S 13 G 28 16.09 Partly Cloudy SCT050 SCT060 SCT090 32 20 49% 34 76.78 0.0
19 13:15 S 13 16.09 Partly Cloudy SCT050 31 20 52% 33 76.76 0.0
19 12:55 SW 19 G 28 16.09 Mostly Cloudy SCT050 BKN095 32 20 49% 34 76.78 0.0
19 12:35 S 11 16.09 Partly Cloudy SCT095 31 20 52% 33 76.78 0.0
19 12:15 SW 17 16.09 Fair CLR 31 19 49% 32 76.78 0.0
19 11:55 S 17 16.09 Fair CLR 31 20 52% 33 76.78 0.0
19 11:35 SW 7 16.09 Fair CLR 30 20 55% 32 76.78 0.0
19 11:15 S 15 16.09 Fair CLR 30 20 55% 32 76.78 0.0
19 10:55 S 11 16.09 Fair CLR 30 20 55% 32 76.78 0.0
19 10:35 SW 11 16.09 Fair CLR 29 20 58% 31 76.78 0.0
19 10:15 SW 9 16.09 Partly Cloudy SCT100 28 20 62% 30 76.78 0.0
19 09:55 SW 11 16.09 Partly Cloudy SCT100 28 21 66% 30 76.81 0.0
19 09:35 S 9 16.09 Fair CLR 27 21 70% 29 76.78 0.0
19 09:15 S 9 16.09 Partly Cloudy SCT095 26 21 74% 27 76.81 0.0
19 08:55 S 7 16.09 Partly Cloudy SCT095 26 20 70% 27 76.81 0.0
19 08:35 SW 7 16.09 Partly Cloudy SCT100 26 20 70% 27 76.81 0.0
19 08:15 SW 11 16.09 Mostly Cloudy BKN100 26 20 70% 27 76.78 0.0
19 07:55 SW 9 16.09 Mostly Cloudy BKN100 26 20 70% 27 76.76 0.0
19 07:35 S 9 16.09 Fair CLR 25 20 74% 26 76.73 0.0
19 07:15 S 9 16.09 Partly Cloudy SCT110 25 20 74% 26 76.73 0.0
19 06:55 S 7 16.09 Mostly Cloudy SCT090 BKN110 24 20 78% 24 76.71 0.0
19 06:35 SW 7 16.09 Partly Cloudy SCT110 23 20 83% 76.71 0.0
19 06:15 S 7 16.09 Fair CLR 24 20 78% 24 76.68 0.0
19 05:55 SW 7 16.09 Fair CLR 23 20 83% 76.68 0.0
19 05:35 SW 9 16.09 Fair CLR 23 20 83% 76.68 0.0
19 05:15 SW 11 16.09 Partly Cloudy SCT090 23 20 83% 76.66 0.0
19 04:55 S 9 16.09 Mostly Cloudy BKN090 24 20 78% 24 76.66 0.0
19 04:35 S 11 16.09 Fair CLR 24 20 78% 24 76.63 0.0
19 04:15 S 11 16.09 Fair CLR 24 20 78% 24 76.63 0.0
19 03:55 S 9 16.09 Fair CLR 24 20 78% 24 76.58 0.0
19 03:35 S 9 16.09 Fair CLR 24 20 78% 24 76.58 0.0
19 03:15 S 11 16.09 Fair CLR 25 20 74% 26 76.58 0.0
19 02:55 SW 13 16.09 Fair CLR 25 20 74% 26 76.58 0.0
19 02:35 S 13 16.09 Fair CLR 25 20 74% 26 76.56 0.0
19 02:15 S 13 16.09 Fair CLR 25 20 74% 26 76.56 0.0
19 01:55 S 11 16.09 Fair CLR 25 20 74% 26 76.56 0.0
19 01:35 S 13 16.09 Fair CLR 25 21 79% 26 76.56 0.0
19 01:15 S 11 16.09 Fair CLR 25 21 79% 26 76.53 0.0
19 00:55 S 13 16.09 Fair CLR 25 21 79% 26 76.53 0.0
19 00:35 S 11 16.09 Fair CLR 25 21 79% 26 76.53 0.0
18 23:55 S 13 16.09 Fair CLR 25 21 79% 26 76.5 0.0
18 23:35 S 13 16.09 Fair CLR 25 21 79% 26 76.48 0.0
18 23:15 S 15 16.09 Fair CLR 25 21 79% 26 76.48 0.0
18 22:55 S 15 G 28 16.09 Fair CLR 25 21 79% 26 76.45 0.0
18 22:35 S 15 G 26 16.09 Fair CLR 26 20 70% 27 76.45 0.0
18 22:15 S 15 16.09 Fair CLR 26 20 70% 27 76.43 0.0
18 21:55 S 19 G 26 16.09 Fair CLR 26 20 70% 27 76.38 0.0
18 21:35 S 24 G 30 16.09 Fair CLR 26 21 74% 27 76.38 0.0
18 21:15 S 17 G 30 16.09 Fair CLR 27 21 70% 29 76.33 0.0
18 20:55 S 15 16.09 Fair CLR 27 21 70% 29 76.33 0.0
18 20:35 S 15 16.09 Fair CLR 27 21 70% 29 76.3 0.0
18 20:15 S 15 16.09 Fair CLR 27 21 70% 29 76.3 0.0
18 19:55 S 17 16.09 Fair CLR 28 21 66% 30 76.28 0.0
18 19:35 S 13 16.09 Fair CLR 28 21 66% 30 76.28 0.0
18 19:15 S 20 G 33 16.09 Partly Cloudy SCT043 28 21 66% 30 76.3 0.0
18 18:55 S 19 G 28 16.09 Fair CLR 30 21 59% 33 76.3 0.0
18 18:35 S 19 G 30 16.09 Fair CLR 30 21 59% 33 76.3 0.0
18 18:15 S 13 G 30 16.09 Fair CLR 30 21 59% 33 76.28 0.0
18 17:55 S 19 G 31 16.09 Partly Cloudy SCT044 30 21 59% 33 76.28 0.0
18 17:35 S 13 G 28 16.09 Fair CLR 30 21 59% 33 76.28 0.0
18 17:15 S 17 G 31 16.09 Fair CLR 31 21 55% 34 76.28 0.0
18 16:55 S 20 G 31 16.09 Partly Cloudy SCT048 31 21 55% 34 76.3 0.0
18 16:35 S 22 G 35 16.09 Partly Cloudy SCT048 31 21 55% 34 76.3 0.0
18 16:15 S 15 16.09 Partly Cloudy SCT048 SCT055 31 21 55% 34 76.3 0.0
18 15:55 S 15 G 39 16.09 Fair CLR 30 21 59% 33 76.33 0.0
18 15:35 S 15 G 37 16.09 Fair CLR 30 21 59% 33 76.33 0.0
18 15:15 SW 30 G 44 16.09 Partly Cloudy SCT044 31 21 55% 34 76.33 0.0
18 14:55 S 20 G 28 16.09 Fair CLR 31 21 55% 34 76.33 0.0
18 14:35 SW 37 G 46 16.09 Partly Cloudy and Breezy SCT045 31 20 52% 33 76.33 0.0
18 14:15 S 28 G 39 16.09 Fair CLR 31 20 52% 33 76.33 0.0
18 13:55 S 20 G 41 16.09 Fair CLR 30 20 55% 32 76.33 0.0
18 13:35 S 26 G 35 16.09 Fair CLR 30 21 59% 33 76.33 0.0
18 13:15 S 30 G 37 16.09 Fair CLR 29 20 58% 31 76.33 0.0
18 12:55 S 22 G 37 16.09 Fair CLR 28 21 66% 30 76.33 0.0
18 12:35 S 26 G 39 16.09 Fair CLR 28 21 66% 30 76.35 0.0
18 12:15 S 28 G 46 16.09 Fair CLR 27 21 70% 29 76.35 0.0
Date Time (cdt) Wind (kph) Vis. (km) Weather Sky Cond. Air Dwpt Max. Min. Relative Humidity Wind Chill (°C) Heat Index (°C) altimeter (cm) sea level (mb) 1 hr 3 hr 6 hr
6 hour
Temperature (ºC) Pressure Precipitation (cm)